• Join FlightAware (Why Join?)
  • Login
  • US Flag 
05:27AM EDT


 

Airport Tracker/Info


-or-


 

Live Flight TrackerFlight Track Log ✈ ASQ5941 ✈ 02-Sep-2013 ✈ KORD - KAVP

Flight Track Log - Related Links

Times and Time Zones

All times are in EDT time to prevent confusion due to time zone crossing. See the ASQ5941 flight status page for this flight to view local times or setup timezone preferences in your user account.

Time Position Orientation Groundspeed Altitude Reporting Facility
EDT Latitude Longitude Course Direction KTS MPH feet Rate Location/Type
02:56PM 42.0000 -87.8833 80° East 155 178 1,700  Level Chicago TRACON
02:57PM 42.0000 -87.8000 90° East 202 232 3,900 1,560 Climbing Chicago TRACON
02:58PM 42.0167 -87.7167 75° East 256 295 5,000 1,200 Climbing Chicago TRACON
02:59PM 42.0167 -87.6167 90° East 274 315 6,300 1,260 Climbing Chicago TRACON
03:00PM 42.0606 -87.2984 78° East  Level FlightAware Approximate
03:01PM 42.0840 -87.1458 77° East  Level FlightAware Approximate
03:01PM 42.0428 -87.5042 73° East 281 323 7,900  Level Chicago Center
03:02PM 42.1002 -86.9987 80° East  Level FlightAware Approximate
03:02PM 42.0594 -87.3997 78° East 284 327 9,800  Level Chicago Center
03:03PM 42.0800 -87.2669 78° East 299 344 11,600 1,560 Climbing Chicago Center
03:04PM 42.0986 -87.1500 78° East 314 361 13,100 1,200 Climbing Chicago Center
03:05PM 42.1158 -87.0244 79° East 334 384 14,100 1,200 Climbing Chicago Center
03:06PM 42.1172 -86.8878 89° East 356 410 15,700 1,380 Climbing Chicago Center
03:07PM 42.1225 -86.7519 87° East 362 417 17,000 1,140 Climbing Chicago Center
03:08PM 42.1283 -86.6069 87° East 374 430 18,100 960 Climbing Chicago Center
03:09PM 42.1328 -86.4600 88° East 389 448 19,100 960 Climbing Chicago Center
03:10PM 42.1383 -86.2797 88° East 400 460 20,200 960 Climbing Chicago Center
03:11PM 42.1181 -86.1261 100° East 418 481 21,200 900 Climbing Chicago Center
03:12PM 42.0922 -85.9736 103° East 420 483 22,100 960 Climbing Chicago Center
03:13PM 42.0856 -85.7978 93° East 426 490 23,200 960 Climbing Chicago Center
03:14PM 42.0908 -85.6397 87° East 425 489 24,100 900 Climbing Chicago Center
03:15PM 42.0958 -85.4792 88° East 430 495 25,100 900 Climbing Chicago Center
03:16PM 42.1006 -85.3189 88° East 433 498 26,000 900 Climbing Chicago Center
03:17PM 42.1061 -85.1542 87° East 443 510 27,000 900 Climbing Chicago Center
03:18PM 42.1103 -84.9925 88° East 438 504 27,900 960 Climbing Chicago Center
03:19PM 42.1147 -84.8011 88° East 431 496 29,000 960 Climbing Chicago Center
03:20PM 42.1189 -84.6417 88° East 429 494 30,000 900 Climbing Chicago Center
03:21PM 42.1225 -84.4803 88° East 432 497 30,900 900 Climbing Chicago Center
03:22PM 42.1392 -84.3194 82° East 436 502 31,900 900 Climbing Chicago Center
03:23PM 42.1583 -84.1575 81° East 439 505 32,800 480 Climbing Chicago Center
03:24PM 42.1803 -83.9594 81° East 448 516 33,000 60 Climbing Chicago Center
03:25PM 42.1997 -83.7839 81° East 471 542 33,000  Level Chicago Center
03:26PM 42.2189 -83.6064 82° East 479 551 33,000  Level Chicago Center
03:27PM 42.2322 -83.4250 84° East 489 563 33,000  Level Chicago Center
03:29PM 42.2303 -83.1994 91° East 488 562 33,000  Level Cleveland Center
03:30PM 42.2303 -83.0144 90° East 493 567 33,000  Level Cleveland Center
03:31PM 42.2319 -82.8294 89° East 493 567 33,000  Level Cleveland Center
03:32PM 42.2314 -82.6386 90° East 498 573 33,000  Level Cleveland Center
03:33PM 42.2325 -82.4508 89° East 498 573 33,000 -480 Level Cleveland Center
03:34PM 42.2292 -82.2628 91° East 498 573 32,100 -960 Descending Cleveland Center
03:35PM 42.2211 -82.0917 94° East 498 573 31,100 -1,020 Descending Cleveland Center
03:36PM 42.2089 -81.8922 95° East 492 566 30,100 -1,020 Descending Cleveland Center
03:37PM 42.1961 -81.7125 95° East 487 560 29,100 -1,020 Descending Cleveland Center
03:38PM 42.1833 -81.5219 95° East 492 566 28,100 -1,020 Descending Cleveland Center
03:39PM 42.1681 -81.3311 96° East 499 574 27,100 -600 Descending Cleveland Center
03:40PM 42.1544 -81.1461 96° East 496 571 27,000 -60 Descending Cleveland Center
03:41PM 42.1406 -80.9639 96° East 496 571 27,000  Level Cleveland Center
03:42PM 42.1267 -80.7736 96° East 496 571 27,000  Level Cleveland Center
03:43PM 42.1142 -80.6028 96° East 502 578 27,000  Level Cleveland Center
03:44PM 42.0994 -80.4181 96° East 502 578 27,000  Level Cleveland Center
03:45PM 42.0844 -80.2278 96° East 502 578 27,000  Level Cleveland Center
03:46PM 42.0692 -80.0406 96° East 502 578 27,000  Level Cleveland Center
03:47PM 42.0514 -79.8281 96° East 507 583 27,000  Level Cleveland Center
03:48PM 42.0436 -79.6381 93° East 507 583 27,000  Level Cleveland Center
03:49PM 42.0669 -79.4503 80° East 502 578 27,000  Level Cleveland Center
03:50PM 42.0878 -79.2597 82° East 502 578 27,000  Level Cleveland Center
03:51PM 42.1128 -79.0744 80° East 502 578 27,000  Level Cleveland Center
03:52PM 42.1392 -78.8864 79° East 507 583 27,000 -900 Level Cleveland Center
03:53PM 42.1739 -78.7033 76° East 507 583 25,200 -1,680 Descending Cleveland Center
03:54PM 42.2047 -78.5453 75° East 502 578 23,700 -1,140 Descending Cleveland Center
03:55PM 42.2369 -78.3733 76° East 482 555 23,000 -360 Descending Cleveland Center
03:56PM 42.2647 -78.2011 78° East 468 539 23,000  Level Cleveland Center
03:57PM 42.2672 -78.0214 89° East 468 539 23,000  Level Cleveland Center
03:58PM 42.2686 -77.8164 89° East 478 550 23,000  Level Cleveland Center
03:59PM 42.2683 -77.5661 90° East 475 547 23,000  Level New York Center
04:00PM 42.2525 -77.4047 97° East 468 539 23,000  Level New York Center
04:01PM 42.2139 -77.2358 107° East 457 526 23,000  Level New York Center
04:02PM 42.1664 -77.0744 112° Southeast 464 534 23,000 -720 Level New York Center
04:03PM 42.1111 -76.9350 118° Southeast 449 517 21,600 -1,920 Descending New York Center
04:04PM 42.0364 -76.8106 129° Southeast 428 493 19,200 -2,700 Descending New York Center
04:05PM 41.9514 -76.6775 131° Southeast 433 498 16,300 -2,640 Descending New York Center
04:06PM 41.8781 -76.5622 130° Southeast 426 490 14,100 -2,100 Descending New York Center
04:07PM 41.8083 -76.4531 131° Southeast 399 459 12,100 -1,680 Descending New York Center
04:08PM 41.7442 -76.3558 131° Southeast 360 414 10,800 -1,320 Descending New York Center
04:09PM 41.6897 -76.2708 131° Southeast 317 365 9,500 -960 Descending New York Center
04:10PM 41.6353 -76.1858 131° Southeast 292 336 8,900 -1,080 Descending New York Center
04:11PM 41.5972 -76.1106 124° Southeast 286 329 7,400 -1,680 Descending New York Center
04:12PM 41.5700 -76.0169 111° Southeast 274 315 5,600 -1,740 Descending New York Center
04:13PM 41.5539 -75.9103 101° East 264 304 4,000 -840 Descending New York Center
04:14PM 41.5433 -75.8181 99° East 259 298 4,000  Level New York Center
04:15PM 41.5308 -75.7203 100° East 259 298 4,000  Level New York Center
04:16PM 41.5178 -75.6278 101° East 254 292 4,000 -300 Level New York Center
04:17PM 41.4686 -75.6131 167° South 168 193 3,500 -540 Descending New York Center
04:18PM 41.4319 -75.6436 212° Southwest 157 181 3,000 -660 Descending New York Center
04:19PM 41.3994 -75.6717 213° Southwest 157 181 2,200 -780 Descending New York Center
04:20PM 41.3692 -75.7000 215° Southwest 145 167 1,500 -480 Descending New York Center
04:21PM 41.3306 -75.7275 208° Southwest 145 167 1,300 -240 Descending New York Center
04:23PM 41.3333 -75.7167 North  Level FlightAware Approximate
04:30PM 41.3385 -75.7234 North  Level Estimated
04:31PM 41.3333 -75.7167 North  Level FlightAware Approximate
04:32PM 41.3385 -75.7234 North  Level Estimated
04:33PM 41.3333 -75.7167 North  Level FlightAware Approximate